Date,TemperatureHighF,TemperatureAvgF,TemperatureLowF,DewpointHighF,DewpointAvgF,DewpointLowF,HumidityHigh,HumidityAvg,HumidityLow,PressureMaxIn,PressureMinIn,WindSpeedMaxMPH,WindSpeedAvgMPH,GustSpeedMaxMPH,PrecipitationSumIn
2014-3-1,64.0,44.4,32.0,40.0,31.8,-99.9,92,66,38,0.00,40.00,7,4,12,0.00
2014-3-2,77.0,53.2,32.0,49.0,41.1,31.0,97,70,34,0.00,40.00,9,4,17,0.00
2014-3-3,69.0,53.7,36.0,56.0,45.3,31.0,89,73,60,0.00,40.00,18,8,32,0.01
2014-3-4,38.0,33.2,27.0,31.0,20.7,13.0,83,61,43,0.00,40.00,11,7,21,0.01
2014-3-5,43.0,37.3,34.0,39.0,32.7,23.0,97,84,56,0.00,40.00,5,4,11,0.13
2014-3-6,39.0,35.8,31.0,37.0,31.4,22.0,98,85,52,0.00,40.00,11,7,24,1.48
2014-3-7,45.0,40.6,37.0,43.0,39.5,36.0,98,97,92,0.00,40.00,9,6,21,1.70
2014-3-8,72.0,48.1,31.0,50.0,38.3,-99.9,98,76,39,0.00,40.00,8,4,18,0.02
2014-3-9,76.0,57.3,41.0,51.0,44.5,40.0,98,69,29,0.00,40.00,7,4,14,0.00
2014-3-10,80.0,60.4,42.0,48.0,40.4,34.0,96,56,19,0.00,40.00,9,5,24,0.00
2014-3-11,86.0,63.3,45.0,51.0,44.5,38.0,96,59,18,0.00,40.00,9,6,19,0.00
2014-3-12,77.0,64.5,53.0,61.0,54.3,35.0,93,71,49,0.00,40.00,14,8,33,0.03
2014-3-13,57.0,46.7,34.0,35.0,19.8,6.0,68,37,14,0.00,40.00,10,7,31,0.01
2014-3-14,69.0,46.1,26.0,37.0,24.6,15.0,94,55,13,0.00,40.00,10,4,21,0.00
2014-3-15,76.0,61.0,48.0,44.0,40.9,37.0,72,51,26,0.00,40.00,9,6,17,0.00
2014-3-16,58.0,53.6,51.0,57.0,49.2,-99.9,98,91,55,0.00,40.00,10,4,24,1.21
2014-3-17,56.0,42.8,37.0,56.0,40.1,-99.9,99,95,93,0.00,40.00,8,6,18,0.22
2014-3-18,45.0,40.2,35.0,41.0,37.5,34.0,97,90,81,0.00,40.00,8,6,18,0.18
2014-3-19,55.0,44.9,41.0,48.0,42.0,39.0,98,90,71,0.00,40.00,5,3,12,0.00
2014-3-20,77.0,53.0,38.0,51.0,38.6,-99.9,99,70,21,0.00,40.00,5,4,15,0.00
2014-3-21,75.0,55.9,34.0,40.0,29.7,-99.9,96,48,16,0.00,40.00,7,4,13,0.00
2014-3-22,81.0,59.9,43.0,56.0,45.3,38.0,94,63,30,0.00,40.00,8,4,17,0.00
2014-3-23,73.0,57.6,47.0,59.0,47.4,-99.9,97,74,43,0.00,40.00,11,4,20,0.00
2014-3-24,59.0,52.2,40.0,35.0,25.4,20.0,78,39,22,0.00,40.00,7,6,17,0.00
2014-3-25,54.0,46.0,40.0,45.0,35.9,21.0,93,69,42,0.00,40.00,13,6,32,0.02
2014-3-26,56.0,41.1,28.0,26.0,16.9,11.0,75,42,18,0.00,40.00,9,5,21,0.01
2014-3-27,69.0,46.7,26.0,44.0,30.0,22.0,93,61,21,0.00,40.00,10,5,20,0.00
2014-3-28,71.0,56.3,43.0,61.0,51.7,41.0,98,85,65,0.00,40.00,8,3,16,0.05
2014-3-29,70.0,62.0,59.0,66.0,58.8,53.0,99,90,66,0.00,40.00,10,4,26,0.71
2014-3-30,69.0,55.2,45.0,47.0,33.4,-99.9,80,49,21,0.00,40.00,13,9,33,0.12
2014-3-31,78.0,53.3,33.0,42.0,28.6,15.0,96,55,10,0.00,40.00,8,3,15,0.00